Alpine, Colorado
Current Conditions -  °F | °C
As of 7:30 PM on Saturday 20 Dec 2014 (Local Time) from KRCV Reporting Station
Overcast Overcast  
Wind Chill: -9°   Ceiling: 12000
Heat Index: -4°   Visibility: 10mi
Dew Point: -12°   Wind: 7mph
Humidity: 57%   Direction: 250°WSW
Pressure: 30.04"   Gusts: NA
Location:  37.6617°N, 106.617°W
Report Text: KRCV 210230Z AUTO 25006KT 10SM OVC120 M04/M11 A3004 RMK AO2 T10421115
Loading
Personal Weather Stations






























Interactive Weather Map New forecast layout! Learn more

10-Day Weather Forecast

Advertisements
Track Severe Weather on mobile